Time;durP1;ratioP1;P1;durP2;ratioP2;P2;SDS_P1;SDS_P2;PMS_P1;PMS_P2;Temp;Humidity;BMP_temperature;BMP_pressure;BME280_temperature;BME280_humidity;BME280_pressure;Samples;Min_cycle;Max_cycle;Signal;HPM_P1;HPM_P2
2021/09/11 00:01:43;;;;;;;41.23;26.70;;;17.90;98.30;;;;;;5141399;23;20498;-79
2021/09/11 00:03:46;;;;;;;46.10;28.77;;;17.90;98.30;;;;;;5140573;23;21110;-79
2021/09/11 00:05:49;;;;;;;39.53;25.93;;;17.90;98.30;;;;;;5141255;23;20775;-78
2021/09/11 00:07:54;;;;;;;42.73;28.17;;;17.90;98.30;;;;;;5141621;23;20513;-79
2021/09/11 00:09:57;;;;;;;47.00;28.67;;;17.90;98.30;;;;;;5141505;23;20425;-79
2021/09/11 00:12:00;;;;;;;48.10;29.37;;;18.00;98.30;;;;;;5141280;23;20425;-79
2021/09/11 00:14:03;;;;;;;41.83;27.60;;;18.00;98.30;;;;;;5140726;23;20428;-79
2021/09/11 00:16:07;;;;;;;44.90;27.47;;;17.90;98.30;;;;;;5141683;23;20483;-79
2021/09/11 00:18:10;;;;;;;42.70;27.00;;;18.00;98.30;;;;;;5141627;23;20421;-79
2021/09/11 00:20:14;;;;;;;45.20;28.27;;;18.00;98.30;;;;;;5141241;23;20443;-79
2021/09/11 00:22:17;;;;;;;41.67;26.53;;;17.90;98.30;;;;;;5141985;23;20781;-79
2021/09/11 00:24:20;;;;;;;43.60;26.60;;;18.00;98.30;;;;;;5150124;23;20448;-80
2021/09/11 00:26:23;;;;;;;42.20;26.20;;;17.90;98.30;;;;;;5143423;23;20731;-79
2021/09/11 00:28:26;;;;;;;37.17;26.10;;;17.90;98.30;;;;;;5143900;23;20801;-79
2021/09/11 00:30:29;;;;;;;37.87;25.70;;;18.00;98.30;;;;;;5143474;23;20431;-80
2021/09/11 00:32:34;;;;;;;31.87;23.07;;;18.00;98.30;;;;;;5142977;23;20502;-79
2021/09/11 00:34:37;;;;;;;34.43;23.33;;;17.90;98.30;;;;;;5142485;23;20942;-79
2021/09/11 00:36:40;;;;;;;34.23;21.73;;;17.90;98.30;;;;;;5142724;23;20731;-80
2021/09/11 00:38:44;;;;;;;34.03;23.17;;;17.90;98.30;;;;;;5142987;23;20503;-79
2021/09/11 00:40:46;;;;;;;35.23;23.03;;;17.90;98.30;;;;;;5143670;23;20432;-79
2021/09/11 00:42:49;;;;;;;28.83;19.80;;;18.00;98.30;;;;;;5143184;23;20433;-79
2021/09/11 00:44:53;;;;;;;29.43;19.60;;;18.00;98.30;;;;;;5141784;23;20476;-79
2021/09/11 00:46:55;;;;;;;26.07;18.50;;;18.00;98.30;;;;;;5143217;23;20436;-79
2021/09/11 00:49:00;;;;;;;27.73;20.13;;;17.90;98.30;;;;;;5143189;23;20424;-79
2021/09/11 00:51:03;;;;;;;28.77;19.17;;;17.90;98.30;;;;;;5144081;23;20971;-80
2021/09/11 00:53:05;;;;;;;30.27;20.73;;;17.90;98.30;;;;;;5143283;23;20914;-79
2021/09/11 00:55:10;;;;;;;29.33;18.57;;;18.00;98.30;;;;;;5142534;23;20507;-79
2021/09/11 00:57:13;;;;;;;23.70;18.50;;;17.90;98.30;;;;;;5143033;23;20976;-79
2021/09/11 00:59:16;;;;;;;28.63;20.83;;;18.00;98.30;;;;;;5141913;23;20872;-79
2021/09/11 01:01:18;;;;;;;29.50;20.90;;;18.00;98.30;;;;;;5141778;23;20508;-79
2021/09/11 01:03:22;;;;;;;31.10;19.27;;;18.00;98.30;;;;;;5142873;23;20499;-79
2021/09/11 01:05:26;;;;;;;25.60;18.00;;;18.00;98.30;;;;;;5141507;23;20448;-79
2021/09/11 01:07:30;;;;;;;24.97;18.30;;;18.00;98.30;;;;;;5143205;23;20428;-79
2021/09/11 01:09:34;;;;;;;30.07;19.90;;;18.00;98.30;;;;;;5142637;23;20437;-79
2021/09/11 01:11:37;;;;;;;26.37;19.53;;;18.00;98.30;;;;;;5143113;23;20511;-79
2021/09/11 01:13:40;;;;;;;25.87;18.43;;;18.00;98.30;;;;;;5141037;23;20436;-79
2021/09/11 01:15:43;;;;;;;28.17;18.80;;;18.00;98.30;;;;;;5142303;23;20460;-79
2021/09/11 01:17:47;;;;;;;29.27;18.40;;;18.00;98.30;;;;;;5143190;23;20735;-79
2021/09/11 01:19:49;;;;;;;27.40;19.00;;;18.00;98.30;;;;;;5142459;23;20940;-79
2021/09/11 01:21:54;;;;;;;23.73;17.93;;;18.00;98.30;;;;;;5142730;23;20433;-79
2021/09/11 01:23:58;;;;;;;28.20;19.70;;;18.00;98.30;;;;;;5142107;23;20455;-79
2021/09/11 01:26:00;;;;;;;27.30;18.17;;;18.00;98.30;;;;;;5142074;23;20498;-79
2021/09/11 01:28:04;;;;;;;32.20;18.17;;;18.00;98.30;;;;;;5141666;23;20433;-79
2021/09/11 01:30:09;;;;;;;27.13;17.63;;;18.00;98.30;;;;;;5150508;23;20421;-79
2021/09/11 01:32:15;;;;;;;28.80;19.43;;;17.90;98.30;;;;;;5142306;23;20429;-79
2021/09/11 01:34:18;;;;;;;29.43;17.33;;;17.90;98.30;;;;;;5141338;23;20467;-79
2021/09/11 01:36:20;;;;;;;24.80;18.37;;;17.90;98.30;;;;;;5149804;23;20502;-79
2021/09/11 01:38:24;;;;;;;29.17;19.37;;;17.90;98.30;;;;;;5142322;23;20428;-79
2021/09/11 01:40:28;;;;;;;26.10;18.20;;;17.90;98.30;;;;;;5142507;23;20432;-79
2021/09/11 01:42:31;;;;;;;26.50;19.53;;;17.90;98.30;;;;;;5142357;23;21156;-79
2021/09/11 01:44:34;;;;;;;27.07;20.10;;;17.90;98.30;;;;;;5149262;23;20535;-79
2021/09/11 01:46:37;;;;;;;30.47;18.70;;;17.90;98.30;;;;;;5141617;23;20438;-79
2021/09/11 01:48:41;;;;;;;28.50;19.33;;;17.90;98.30;;;;;;5142167;23;20507;-79
2021/09/11 01:50:44;;;;;;;28.43;18.50;;;17.90;98.30;;;;;;5142418;23;20490;-79
2021/09/11 01:52:47;;;;;;;26.73;19.10;;;17.80;98.30;;;;;;5142084;23;20492;-80
2021/09/11 01:54:51;;;;;;;27.23;18.10;;;17.80;98.30;;;;;;5141354;23;20441;-79
2021/09/11 01:56:55;;;;;;;26.83;18.73;;;17.80;98.30;;;;;;5141053;23;20951;-79
2021/09/11 01:58:58;;;;;;;26.40;19.20;;;17.80;98.30;;;;;;5140587;23;20511;-79
2021/09/11 02:01:01;;;;;;;25.90;17.77;;;17.80;98.30;;;;;;5140450;23;20425;-79
2021/09/11 02:03:04;;;;;;;27.60;18.77;;;17.70;98.30;;;;;;5140312;23;20436;-79
2021/09/11 02:05:08;;;;;;;27.27;19.13;;;17.80;98.30;;;;;;5140349;23;20456;-79
2021/09/11 02:07:11;;;;;;;31.23;19.83;;;17.70;98.30;;;;;;5140824;23;20515;-79
2021/09/11 02:09:14;;;;;;;28.17;18.17;;;17.70;98.30;;;;;;5141113;23;20443;-79
2021/09/11 02:11:16;;;;;;;29.50;18.37;;;17.70;98.30;;;;;;5141238;23;20432;-79
2021/09/11 02:13:21;;;;;;;30.90;20.40;;;17.80;98.30;;;;;;5140804;23;20921;-79
2021/09/11 02:15:23;;;;;;;35.90;22.50;;;17.70;98.30;;;;;;5141046;23;20467;-78
2021/09/11 02:17:26;;;;;;;30.77;21.23;;;17.80;98.30;;;;;;5141377;23;20433;-79
2021/09/11 02:19:29;;;;;;;37.10;23.30;;;17.80;98.30;;;;;;5140581;23;20483;-79
2021/09/11 02:21:32;;;;;;;33.73;21.70;;;17.80;98.30;;;;;;5141088;23;20437;-79
2021/09/11 02:23:35;;;;;;;36.90;22.23;;;17.80;98.30;;;;;;5140687;23;20448;-80
2021/09/11 02:25:38;;;;;;;34.27;22.60;;;17.80;98.30;;;;;;5149678;23;20777;-79
2021/09/11 02:27:41;;;;;;;44.63;24.30;;;17.80;98.30;;;;;;5146244;23;20425;-79
2021/09/11 02:29:45;;;;;;;39.73;24.80;;;17.80;98.30;;;;;;5147138;23;20443;-79
2021/09/11 02:31:48;;;;;;;41.83;24.20;;;17.90;98.30;;;;;;5147122;23;20429;-79
2021/09/11 02:33:51;;;;;;;36.40;22.97;;;17.90;98.30;;;;;;5144151;23;20435;-79
2021/09/11 02:35:54;;;;;;;41.07;24.00;;;17.90;98.30;;;;;;5143269;23;20429;-79
2021/09/11 02:37:57;;;;;;;40.30;23.83;;;17.90;98.30;;;;;;5145050;23;20436;-79
2021/09/11 02:40:00;;;;;;;42.80;25.20;;;17.90;98.30;;;;;;5145545;23;20486;-79
2021/09/11 02:42:03;;;;;;;40.83;24.40;;;17.90;98.30;;;;;;5143065;23;20490;-79
2021/09/11 02:44:06;;;;;;;39.90;23.83;;;17.90;98.30;;;;;;5142067;23;20480;-79
2021/09/11 02:46:10;;;;;;;39.67;24.10;;;17.90;98.30;;;;;;5142508;23;20424;-79
2021/09/11 02:48:13;;;;;;;40.50;23.83;;;17.90;98.30;;;;;;5142199;23;20471;-79
2021/09/11 02:50:16;;;;;;;42.67;23.20;;;17.90;98.30;;;;;;5142181;23;20513;-79
2021/09/11 02:52:19;;;;;;;42.47;24.97;;;17.90;98.30;;;;;;5142192;23;20984;-79
2021/09/11 02:54:22;;;;;;;41.57;24.23;;;17.90;98.30;;;;;;5140774;23;20449;-79
2021/09/11 02:56:25;;;;;;;42.33;23.93;;;17.80;98.30;;;;;;5142743;23;20428;-79
2021/09/11 02:58:28;;;;;;;39.90;25.50;;;17.80;98.30;;;;;;5142888;23;20429;-79
2021/09/11 03:00:30;;;;;;;37.90;23.83;;;17.80;98.30;;;;;;5142562;23;20429;-79
2021/09/11 03:02:35;;;;;;;42.30;24.80;;;17.80;98.30;;;;;;5141971;23;21020;-78
2021/09/11 03:04:38;;;;;;;44.50;25.37;;;17.80;98.30;;;;;;5140940;23;20455;-78
2021/09/11 03:06:41;;;;;;;42.83;24.70;;;17.80;98.30;;;;;;5142201;23;20506;-79
2021/09/11 03:08:44;;;;;;;41.50;24.43;;;17.80;98.30;;;;;;5140478;23;20441;-78
2021/09/11 03:10:47;;;;;;;48.33;26.40;;;17.80;98.30;;;;;;5142290;23;20988;-78
2021/09/11 03:12:50;;;;;;;53.20;25.77;;;17.90;98.30;;;;;;5143145;23;20751;-79
2021/09/11 03:14:54;;;;;;;43.23;24.50;;;17.90;98.30;;;;;;5150896;23;20480;-79
2021/09/11 03:16:57;;;;;;;47.90;26.50;;;17.80;98.30;;;;;;5142502;23;20428;-79
2021/09/11 03:19:01;;;;;;;47.70;28.03;;;17.80;98.30;;;;;;5149905;23;20505;-79
2021/09/11 03:21:03;;;;;;;48.03;26.87;;;17.80;98.30;;;;;;5142340;23;21024;-79
2021/09/11 03:23:07;;;;;;;44.43;26.30;;;17.80;98.30;;;;;;5142025;23;20432;-79
2021/09/11 03:25:11;;;;;;;48.23;26.27;;;17.80;98.30;;;;;;5140973;23;20452;-78
2021/09/11 03:27:13;;;;;;;47.73;26.70;;;17.80;98.30;;;;;;5142104;23;20993;-79
2021/09/11 03:29:16;;;;;;;51.70;26.57;;;17.80;98.30;;;;;;5142178;23;20431;-78
2021/09/11 03:31:19;;;;;;;49.90;27.17;;;17.80;98.30;;;;;;5141955;23;20425;-78
2021/09/11 03:33:22;;;;;;;58.13;26.80;;;17.80;98.30;;;;;;5141749;23;20914;-79
2021/09/11 03:35:27;;;;;;;49.23;26.80;;;17.80;98.30;;;;;;5141101;23;20449;-79
2021/09/11 03:37:29;;;;;;;65.33;29.47;;;17.80;98.30;;;;;;5141626;23;20436;-78
2021/09/11 03:39:32;;;;;;;58.43;28.17;;;17.80;98.30;;;;;;5141704;23;20483;-79
2021/09/11 03:41:35;;;;;;;56.37;28.63;;;17.80;98.30;;;;;;5141707;23;20439;-79
2021/09/11 03:43:38;;;;;;;64.17;29.73;;;17.80;98.30;;;;;;5141342;23;20438;-79
2021/09/11 03:45:41;;;;;;;58.80;29.00;;;17.80;98.30;;;;;;5141749;23;20449;-79
2021/09/11 03:47:44;;;;;;;54.57;29.40;;;17.80;98.30;;;;;;5140839;23;20491;-79
2021/09/11 03:49:46;;;;;;;58.57;30.40;;;17.80;98.30;;;;;;5141272;23;20498;-79
2021/09/11 03:51:51;;;;;;;53.83;29.43;;;17.80;98.30;;;;;;5141807;23;20428;-79
2021/09/11 03:53:53;;;;;;;52.83;30.43;;;17.80;98.30;;;;;;5140862;23;21079;-79
2021/09/11 03:55:56;;;;;;;58.50;30.23;;;17.80;98.30;;;;;;5141574;23;20425;-79
2021/09/11 03:58:02;;;;;;;56.43;30.57;;;17.80;98.30;;;;;;5141686;23;20416;-79
2021/09/11 04:00:06;;;;;;;59.73;31.53;;;17.80;98.30;;;;;;5141746;23;20428;-79
2021/09/11 04:02:09;;;;;;;57.93;27.97;;;17.80;98.30;;;;;;5141331;23;20484;-79
2021/09/11 04:04:12;;;;;;;61.03;30.20;;;17.80;98.30;;;;;;5140964;23;20459;-78
2021/09/11 04:06:15;;;;;;;57.87;29.80;;;17.90;98.30;;;;;;5141465;23;20775;-79
2021/09/11 04:08:20;;;;;;;69.50;34.63;;;17.90;98.30;;;;;;5141549;23;20439;-79
2021/09/11 04:10:22;;;;;;;51.30;29.50;;;17.90;98.30;;;;;;5141801;23;20439;-79
2021/09/11 04:12:26;;;;;;;58.57;30.00;;;17.90;98.30;;;;;;5141552;23;20433;-79
2021/09/11 04:14:29;;;;;;;55.17;28.60;;;17.90;98.30;;;;;;5141527;23;20953;-79
2021/09/11 04:16:31;;;;;;;48.40;28.67;;;17.90;98.30;;;;;;5141583;23;21009;-79
2021/09/11 04:18:34;;;;;;;49.80;28.80;;;17.90;98.30;;;;;;5141165;23;20528;-78
2021/09/11 04:20:37;;;;;;;47.80;26.77;;;17.90;98.30;;;;;;5141406;23;20429;-79
2021/09/11 04:22:40;;;;;;;46.80;25.70;;;17.90;98.30;;;;;;5142047;23;20483;-79
2021/09/11 04:24:44;;;;;;;47.17;28.40;;;17.90;98.30;;;;;;5140819;23;20453;-79
2021/09/11 04:26:47;;;;;;;50.17;27.57;;;17.90;98.30;;;;;;5141576;23;20448;-79
2021/09/11 04:28:50;;;;;;;50.57;26.87;;;17.90;98.30;;;;;;5141191;23;20435;-79
2021/09/11 04:30:52;;;;;;;45.70;27.43;;;17.90;98.30;;;;;;5141393;23;20429;-79
2021/09/11 04:32:55;;;;;;;49.57;26.60;;;18.00;98.30;;;;;;5141320;23;20460;-79
2021/09/11 04:34:59;;;;;;;44.50;26.40;;;18.00;98.30;;;;;;5140655;23;20503;-79
2021/09/11 04:37:01;;;;;;;48.13;29.17;;;18.00;98.30;;;;;;5140881;23;20436;-79
2021/09/11 04:39:04;;;;;;;49.90;27.47;;;18.00;98.30;;;;;;5140853;23;20491;-79
2021/09/11 04:41:08;;;;;;;48.57;27.27;;;18.00;98.30;;;;;;5140769;23;20429;-79
2021/09/11 04:43:11;;;;;;;48.33;26.83;;;18.00;98.30;;;;;;5141263;23;20907;-79
2021/09/11 04:45:14;;;;;;;50.00;27.50;;;18.00;98.30;;;;;;5140968;23;20455;-79
2021/09/11 04:47:17;;;;;;;52.37;30.73;;;18.00;98.30;;;;;;5140760;23;20449;-79
2021/09/11 04:49:20;;;;;;;60.57;30.47;;;18.00;98.30;;;;;;5141397;23;20701;-79
2021/09/11 04:51:23;;;;;;;50.20;28.50;;;18.00;98.30;;;;;;5140713;23;20482;-79
2021/09/11 04:53:26;;;;;;;54.80;29.67;;;18.00;98.30;;;;;;5140594;23;20429;-79
2021/09/11 04:55:29;;;;;;;54.53;29.03;;;18.00;98.30;;;;;;5140573;23;20484;-79
2021/09/11 04:57:33;;;;;;;55.60;28.57;;;18.00;98.30;;;;;;5141123;23;20499;-79
2021/09/11 04:59:36;;;;;;;53.70;30.57;;;18.00;98.30;;;;;;5140695;23;20463;-79
2021/09/11 05:01:39;;;;;;;56.93;31.80;;;18.00;98.30;;;;;;5140952;23;20429;-79
2021/09/11 05:03:42;;;;;;;50.60;28.43;;;18.10;98.30;;;;;;5140645;23;20432;-78
2021/09/11 05:05:45;;;;;;;50.07;27.70;;;18.00;98.30;;;;;;5140702;23;20453;-78
2021/09/11 05:07:48;;;;;;;54.93;28.80;;;18.10;98.30;;;;;;5140940;23;20436;-78
2021/09/11 05:09:51;;;;;;;55.13;27.73;;;18.10;98.30;;;;;;5140470;23;20433;-78
2021/09/11 05:11:54;;;;;;;48.70;27.10;;;18.10;98.30;;;;;;5140736;23;21079;-79
2021/09/11 05:13:58;;;;;;;57.07;28.43;;;18.10;98.30;;;;;;5140302;23;20425;-79
2021/09/11 05:16:01;;;;;;;57.70;28.80;;;18.10;98.30;;;;;;5140575;23;20476;-78
2021/09/11 05:18:03;;;;;;;58.47;31.27;;;18.10;98.30;;;;;;5141168;23;20487;-78
2021/09/11 05:20:07;;;;;;;52.40;29.10;;;18.10;98.30;;;;;;5140480;23;20425;-79
2021/09/11 05:22:10;;;;;;;51.33;29.40;;;18.10;98.30;;;;;;5141038;23;20439;-78
2021/09/11 05:24:15;;;;;;;57.33;29.53;;;18.10;98.30;;;;;;5140747;23;20507;-79
2021/09/11 05:26:20;;;;;;;61.13;30.77;;;18.10;98.30;;;;;;5140353;23;20432;-79
2021/09/11 05:28:23;;;;;;;57.63;29.10;;;18.20;98.30;;;;;;5140871;23;20440;-78
2021/09/11 05:30:27;;;;;;;53.47;28.90;;;18.10;98.30;;;;;;5140794;23;20492;-78
2021/09/11 05:32:30;;;;;;;59.27;31.30;;;18.10;98.30;;;;;;5140284;23;20433;-78
2021/09/11 05:34:33;;;;;;;57.27;29.93;;;18.20;98.30;;;;;;5140954;23;20518;-79
2021/09/11 05:36:36;;;;;;;56.43;29.73;;;18.10;98.30;;;;;;5141387;23;20429;-79
2021/09/11 05:38:39;;;;;;;63.77;32.50;;;18.20;98.30;;;;;;5141231;23;20433;-78
2021/09/11 05:40:42;;;;;;;67.77;33.47;;;18.10;98.30;;;;;;5141491;23;20435;-78
2021/09/11 05:42:46;;;;;;;62.50;31.80;;;18.20;98.30;;;;;;5141412;23;20436;-78
2021/09/11 05:44:50;;;;;;;59.63;31.83;;;18.20;98.30;;;;;;5140837;23;20476;-79
2021/09/11 05:46:54;;;;;;;60.40;32.40;;;18.20;98.30;;;;;;5141478;23;20471;-78
2021/09/11 05:48:57;;;;;;;64.23;34.03;;;18.20;98.30;;;;;;5141049;23;20488;-79
2021/09/11 05:51:00;;;;;;;65.83;33.47;;;18.20;98.30;;;;;;5141025;23;20745;-78
2021/09/11 05:53:03;;;;;;;69.83;33.20;;;18.20;98.30;;;;;;5141196;23;20429;-78
2021/09/11 05:55:06;;;;;;;74.47;32.60;;;18.30;98.30;;;;;;5140902;23;20457;-78
2021/09/11 05:57:10;;;;;;;66.80;33.10;;;18.30;98.30;;;;;;5141249;23;20748;-78
2021/09/11 05:59:16;;;;;;;66.83;34.40;;;18.30;98.30;;;;;;5140507;23;20437;-78
2021/09/11 06:01:20;;;;;;;67.93;34.57;;;18.30;98.30;;;;;;5141286;23;20463;-78
2021/09/11 06:03:26;;;;;;;77.23;34.00;;;18.20;98.30;;;;;;5140757;23;20429;-78
2021/09/11 06:05:29;;;;;;;63.33;33.80;;;18.30;98.30;;;;;;5141240;23;20938;-78
2021/09/11 06:07:32;;;;;;;63.57;35.83;;;18.30;98.30;;;;;;5141012;23;21061;-78
2021/09/11 06:09:36;;;;;;;68.50;34.40;;;18.30;98.30;;;;;;5141132;23;20459;-78
2021/09/11 06:11:38;;;;;;;70.80;34.43;;;18.40;98.30;;;;;;5140578;23;20424;-79
2021/09/11 06:13:41;;;;;;;63.00;35.17;;;18.40;98.30;;;;;;5141378;23;20431;-79
2021/09/11 06:15:44;;;;;;;64.20;33.03;;;18.40;98.30;;;;;;5141294;23;20514;-79
2021/09/11 06:17:47;;;;;;;63.57;33.10;;;18.40;98.30;;;;;;5143219;23;20598;-79
2021/09/11 06:19:51;;;;;;;63.80;34.43;;;18.40;98.30;;;;;;5143740;23;20794;-79
2021/09/11 06:21:54;;;;;;;59.70;32.00;;;18.40;98.30;;;;;;5143616;23;20437;-79
2021/09/11 06:24:00;;;;;;;62.37;31.47;;;18.40;98.30;;;;;;5143621;23;20488;-79
2021/09/11 06:26:03;;;;;;;62.73;33.37;;;18.40;98.30;;;;;;5143762;23;20835;-78
2021/09/11 06:28:08;;;;;;;60.30;34.07;;;18.40;98.30;;;;;;5143875;23;20816;-83
2021/09/11 06:34:58;;;;;;;68.13;32.20;;;18.50;98.30;;;;;;5075149;23;20540;-83
2021/09/11 06:37:03;;;;;;;61.80;30.43;;;18.50;98.30;;;;;;5081405;23;20400;-82
2021/09/11 06:39:06;;;;;;;63.37;31.03;;;18.60;98.30;;;;;;5122005;23;20479;-83
2021/09/11 06:41:10;;;;;;;68.17;33.77;;;18.60;98.30;;;;;;5170196;23;20444;-83
2021/09/11 06:43:14;;;;;;;60.33;32.67;;;18.60;98.30;;;;;;5169013;23;20419;-82
2021/09/11 06:45:40;;;;;;;68.30;34.07;;;18.60;98.30;;;;;;5168001;23;20437;-82
2021/09/11 06:47:48;;;;;;;60.60;32.13;;;18.60;98.30;;;;;;5166784;23;20444;-82
2021/09/11 06:49:52;;;;;;;70.73;34.90;;;18.70;98.30;;;;;;5164033;23;20417;-82
2021/09/11 06:51:55;;;;;;;66.77;33.93;;;18.70;98.30;;;;;;5165475;23;20456;-82
2021/09/11 06:54:02;;;;;;;67.83;35.40;;;18.70;98.30;;;;;;5158478;23;20417;-81
2021/09/11 06:56:07;;;;;;;75.40;35.70;;;18.70;98.30;;;;;;5151342;23;20803;-83
2021/09/11 06:58:10;;;;;;;66.70;34.50;;;18.70;98.30;;;;;;5154577;23;20401;-82
2021/09/11 07:00:14;;;;;;;84.03;39.20;;;18.70;98.30;;;;;;5145131;23;20509;-83
2021/09/11 07:02:17;;;;;;;68.60;33.97;;;18.70;98.30;;;;;;5152847;23;20432;-82
2021/09/11 07:04:21;;;;;;;65.73;33.43;;;18.70;98.30;;;;;;5152417;23;20455;-81
2021/09/11 07:06:24;;;;;;;73.40;35.80;;;18.70;98.30;;;;;;5153426;23;20424;-82
2021/09/11 07:08:27;;;;;;;63.00;33.00;;;18.80;98.30;;;;;;5153398;23;20451;-82
2021/09/11 07:10:32;;;;;;;64.80;34.20;;;18.90;98.30;;;;;;5152584;23;20425;-82
2021/09/11 07:12:35;;;;;;;66.87;34.80;;;18.90;98.30;;;;;;5153381;23;20457;-82
2021/09/11 07:14:38;;;;;;;61.20;34.73;;;19.00;98.30;;;;;;5153309;23;20456;-82
2021/09/11 07:16:43;;;;;;;58.20;33.20;;;19.10;98.30;;;;;;5151936;23;20448;-81
2021/09/11 07:18:58;;;;;;;53.97;30.90;;;19.10;98.30;;;;;;5153322;23;20421;-82
2021/09/11 07:21:05;;;;;;;54.33;29.80;;;19.20;98.30;;;;;;5152996;23;20475;-82
2021/09/11 07:23:26;;;;;;;52.73;29.97;;;19.20;98.30;;;;;;5154306;23;20425;-82
2021/09/11 07:25:35;;;;;;;55.37;30.43;;;19.20;98.30;;;;;;5153343;23;20512;-83
2021/09/11 07:27:39;;;;;;;55.27;31.50;;;19.20;98.30;;;;;;5154241;23;20448;-82
2021/09/11 07:30:14;;;;;;;51.20;30.50;;;19.20;98.30;;;;;;5153710;23;20985;-83
2021/09/11 07:32:21;;;;;;;54.50;31.77;;;19.20;98.30;;;;;;5154350;23;21100;-83
2021/09/11 07:34:35;;;;;;;58.10;33.63;;;19.30;98.30;;;;;;5153562;23;21013;-82
2021/09/11 07:37:09;;;;;;;;;;;;;;;;;;;;;
2021/09/11 07:39:18;;;;;;;54.60;29.60;;;19.30;98.30;;;;;;5153172;23;20435;-82
2021/09/11 07:44:23;;;;;;;52.27;30.50;;;19.30;98.30;;;;;;5001210;23;20447;-82
2021/09/11 07:48:52;;;;;;;51.57;28.90;;;19.30;98.30;;;;;;5149554;23;20941;-82
2021/09/11 07:50:56;;;;;;;54.07;31.50;;;19.40;98.30;;;;;;5153728;23;20754;-83
2021/09/11 07:53:00;;;;;;;55.10;32.77;;;19.40;98.30;;;;;;5153847;23;20436;-82
2021/09/11 07:55:04;;;;;;;52.60;31.87;;;19.30;98.30;;;;;;5153853;23;21239;-83
2021/09/11 07:57:09;;;;;;;53.43;32.80;;;19.20;98.30;;;;;;5153612;23;20455;-82
2021/09/11 07:59:14;;;;;;;50.33;29.97;;;19.20;98.30;;;;;;5153537;23;20428;-82
2021/09/11 08:01:25;;;;;;;52.13;31.57;;;19.30;98.30;;;;;;5154159;23;20421;-83
2021/09/11 08:03:55;;;;;;;51.63;29.97;;;19.30;98.30;;;;;;5153257;23;20425;-82
2021/09/11 08:06:10;;;;;;;49.17;29.57;;;19.30;98.30;;;;;;5153776;23;20457;-82
2021/09/11 08:08:15;;;;;;;49.47;30.50;;;19.40;98.30;;;;;;5153727;23;20449;-82
2021/09/11 08:10:20;;;;;;;47.23;29.23;;;19.40;98.30;;;;;;5153501;23;20530;-82
2021/09/11 08:12:24;;;;;;;52.97;30.37;;;19.40;98.30;;;;;;5154095;23;20463;-82
2021/09/11 08:14:28;;;;;;;47.77;29.30;;;19.40;98.30;;;;;;5153356;23;20487;-82
2021/09/11 08:16:39;;;;;;;44.53;28.73;;;19.40;98.30;;;;;;5154373;23;20425;-82
2021/09/11 08:18:43;;;;;;;42.80;27.60;;;19.40;98.30;;;;;;5154429;23;20432;-82
2021/09/11 08:20:55;;;;;;;43.37;28.00;;;19.30;98.30;;;;;;5155001;23;20511;-82
2021/09/11 08:23:04;;;;;;;45.67;28.50;;;19.40;98.30;;;;;;5154768;23;20743;-82
2021/09/11 08:25:10;;;;;;;46.93;30.17;;;19.40;98.30;;;;;;5153050;23;20445;-82
2021/09/11 08:27:16;;;;;;;42.77;28.57;;;19.40;98.30;;;;;;5153823;23;20420;-82
2021/09/11 08:31:58;;;;;;;47.97;29.13;;;19.50;98.30;;;;;;5153305;23;20432;-82
2021/09/11 08:34:19;;;;;;;50.57;31.03;;;19.50;98.30;;;;;;5151552;23;20519;-82
2021/09/11 08:36:24;;;;;;;48.67;29.63;;;19.50;98.30;;;;;;5153482;23;20405;-82
2021/09/11 08:38:34;;;;;;;42.27;28.37;;;19.60;98.30;;;;;;5152894;23;20774;-82
2021/09/11 08:40:43;;;;;;;48.33;29.70;;;19.60;98.30;;;;;;5153891;23;20429;-82
2021/09/11 08:43:44;;;;;;;42.77;27.40;;;19.60;98.30;;;;;;5153418;23;20456;-82
2021/09/11 08:46:12;;;;;;;49.70;28.43;;;19.60;98.30;;;;;;5028755;23;20428;-84
2021/09/11 08:48:26;;;;;;;46.37;28.03;;;19.50;98.30;;;;;;5143584;23;20448;-82
2021/09/11 08:50:40;;;;;;;41.67;26.40;;;19.50;98.30;;;;;;5152970;23;20957;-83
2021/09/11 08:52:56;;;;;;;45.17;27.80;;;19.60;98.30;;;;;;5152604;23;20429;-83
2021/09/11 08:55:02;;;;;;;41.67;28.17;;;19.60;98.30;;;;;;5138300;23;20468;-83
2021/09/11 08:57:41;;;;;;;41.70;27.83;;;19.60;98.30;;;;;;5144672;23;20469;-82
2021/09/11 08:59:47;;;;;;;45.77;28.60;;;19.50;98.30;;;;;;5126315;23;20429;-83
2021/09/11 09:02:06;;;;;;;41.13;27.77;;;19.60;98.30;;;;;;5153725;23;20432;-83
2021/09/11 09:04:17;;;;;;;45.57;28.10;;;19.60;98.30;;;;;;5151868;23;20511;-82
2021/09/11 09:06:30;;;;;;;44.97;27.80;;;19.60;98.30;;;;;;5153227;23;20448;-83
2021/09/11 09:08:37;;;;;;;41.93;27.00;;;19.60;98.30;;;;;;5152804;23;20502;-82
2021/09/11 09:11:08;;;;;;;;;;;;;;;;;;;;;
2021/09/11 09:14:01;;;;;;;51.13;27.03;;;19.50;98.30;;;;;;5125147;23;20431;-82
2021/09/11 09:16:14;;;;;;;47.17;29.73;;;19.50;98.30;;;;;;5146793;23;20508;-80
2021/09/11 09:18:17;;;;;;;39.33;25.83;;;19.50;98.30;;;;;;5153519;23;20452;-81
2021/09/11 09:20:27;;;;;;;44.47;27.13;;;19.40;98.30;;;;;;5154289;23;20453;-81
2021/09/11 09:22:30;;;;;;;45.70;30.30;;;19.40;98.30;;;;;;5153058;23;20491;-81
2021/09/11 09:24:36;;;;;;;45.73;27.97;;;19.40;98.30;;;;;;5152955;23;20456;-82
2021/09/11 09:26:50;;;;;;;48.47;28.67;;;19.50;98.30;;;;;;5153694;23;20444;-82
2021/09/11 09:29:05;;;;;;;48.90;31.73;;;19.60;98.30;;;;;;5152736;23;20448;-81
2021/09/11 09:31:11;;;;;;;42.17;27.87;;;19.60;98.30;;;;;;5153206;23;21125;-81
2021/09/11 09:33:20;;;;;;;49.50;30.30;;;19.60;98.30;;;;;;5153104;23;21089;-81
2021/09/11 09:35:25;;;;;;;45.53;29.40;;;19.60;98.30;;;;;;5153684;23;20448;-82
2021/09/11 09:37:28;;;;;;;50.00;29.83;;;19.60;98.30;;;;;;5153192;23;20428;-81
2021/09/11 09:39:31;;;;;;;48.30;29.17;;;19.60;98.30;;;;;;5153797;23;20445;-81
2021/09/11 09:41:49;;;;;;;51.63;30.27;;;19.50;98.30;;;;;;5153851;23;20429;-81
2021/09/11 09:43:52;;;;;;;47.10;29.63;;;19.50;98.30;;;;;;5153647;23;20504;-82
2021/09/11 09:46:06;;;;;;;52.70;29.90;;;19.50;98.30;;;;;;5153680;23;20457;-82
2021/09/11 09:48:14;;;;;;;58.30;31.27;;;19.60;98.30;;;;;;5153921;23;20421;-82
2021/09/11 09:50:20;;;;;;;47.00;30.47;;;19.60;98.30;;;;;;5155591;23;20437;-83
2021/09/11 09:52:25;;;;;;;49.43;30.47;;;19.70;98.30;;;;;;5153735;23;20486;-83
2021/09/11 09:54:30;;;;;;;48.47;30.53;;;19.70;98.30;;;;;;5153430;23;21033;-83
2021/09/11 09:56:34;;;;;;;51.93;30.13;;;19.70;98.30;;;;;;5153495;23;20452;-82
2021/09/11 09:58:39;;;;;;;44.83;30.73;;;19.80;98.30;;;;;;5153275;23;20424;-81
2021/09/11 10:00:43;;;;;;;42.23;29.80;;;19.90;98.30;;;;;;5153096;23;20762;-81
2021/09/11 10:02:46;;;;;;;42.73;28.70;;;20.10;98.30;;;;;;5153704;23;20425;-82
2021/09/11 10:04:53;;;;;;;38.93;26.17;;;20.10;98.30;;;;;;5152939;23;20532;-83
2021/09/11 10:07:03;;;;;;;45.90;29.37;;;20.20;98.30;;;;;;5153449;23;20424;-81
2021/09/11 10:09:14;;;;;;;38.10;27.47;;;20.30;98.30;;;;;;5153688;23;20471;-81
2021/09/11 10:11:33;;;;;;;39.83;28.43;;;20.30;98.30;;;;;;5153709;23;20440;-82
2021/09/11 10:13:41;;;;;;;42.90;29.80;;;20.30;98.30;;;;;;5153436;23;20740;-81
2021/09/11 10:15:53;;;;;;;42.63;27.63;;;20.20;98.30;;;;;;5153092;23;20452;-82
2021/09/11 10:18:00;;;;;;;42.27;27.87;;;20.20;98.30;;;;;;5153428;23;20739;-82
2021/09/11 10:20:04;;;;;;;42.10;29.00;;;20.20;98.30;;;;;;5153816;23;20417;-83
2021/09/11 10:22:25;;;;;;;41.07;26.90;;;20.20;98.30;;;;;;5156143;23;20417;-82
2021/09/11 10:24:50;;;;;;;36.73;26.03;;;20.20;98.30;;;;;;5153954;23;21293;-83
2021/09/11 10:26:58;;;;;;;37.23;26.63;;;20.30;98.30;;;;;;5153912;23;20440;-83
2021/09/11 10:29:43;;;;;;;36.60;27.03;;;20.40;98.30;;;;;;5153117;23;20420;-82
2021/09/11 10:31:56;;;;;;;35.47;25.57;;;20.50;98.30;;;;;;5153356;23;20413;-82
2021/09/11 10:34:00;;;;;;;36.87;24.07;;;20.70;98.30;;;;;;5152838;23;20428;-82
2021/09/11 10:36:19;;;;;;;33.33;24.77;;;20.90;98.30;;;;;;5153152;23;21027;-82
2021/09/11 10:38:41;;;;;;;30.07;23.43;;;20.90;98.30;;;;;;5153264;23;20425;-81
2021/09/11 10:40:48;;;;;;;32.23;22.63;;;21.30;98.30;;;;;;5153783;23;20513;-82
2021/09/11 10:43:19;;;;;;;27.27;21.30;;;21.60;98.30;;;;;;5153482;23;20423;-82
2021/09/11 10:45:40;;;;;;;28.40;20.97;;;21.70;98.30;;;;;;5153316;23;20938;-82
2021/09/11 10:47:43;;;;;;;23.80;18.23;;;21.70;98.30;;;;;;5153666;23;20412;-83
2021/09/11 10:49:47;;;;;;;23.97;19.73;;;21.50;98.30;;;;;;5153905;23;20794;-82
2021/09/11 10:52:10;;;;;;;23.57;20.20;;;21.40;98.30;;;;;;5153725;23;20528;-82
2021/09/11 10:54:31;;;;;;;25.77;19.30;;;21.60;98.30;;;;;;5153481;23;21000;-83